Terminal Aerodrome Forecast
Issued by NWS

Home | Current Version | Previous Version | Text Only | Print | Product List | Glossary On
Versions: 1 2 3 4 5 6 7 8 9 10 11 12 13 14 15 16 17 18 19 20 21 22 23 24 25 26 27 28 29 30 31 32 33 34 35 36
000
FTUS43 KLOT 281300 AAA
TAFORD
TAF AMD
KORD 281359Z 2814/2918 16008KT P6SM FEW150 BKN250
     FM281600 16010KT P6SM SCT150
     FM281800 16013G21KT P6SM BKN150
     FM290100 17015G23KT P6SM SCT030 BKN100
     FM290900 23013KT 6SM -SHRA OVC015
     FM291500 32016G27KT P6SM OVC020=

USA.gov is the U.S. government's official web portal to all federal, state and local government web resources and services.